Time;durP1;ratioP1;P1;durP2;ratioP2;P2;SDS_P1;SDS_P2;PMS_P1;PMS_P2;Temp;Humidity;BMP_temperature;BMP_pressure;BME280_temperature;BME280_humidity;BME280_pressure;Samples;Min_cycle;Max_cycle;Signal;HPM_P1;HPM_P2
2022/09/02 00:01:27;;;;;;;6.45;1.70;;;18.40;99.90;;;;;;5071216;28;20224;-87
2022/09/02 00:04:00;;;;;;;8.00;1.83;;;18.30;99.90;;;;;;5060793;28;20220;-87
2022/09/02 00:06:32;;;;;;;6.55;1.80;;;18.30;99.90;;;;;;5076609;28;20251;-87
2022/09/02 00:09:06;;;;;;;6.53;1.63;;;18.30;99.90;;;;;;5074210;28;20199;-87
2022/09/02 00:11:40;;;;;;;5.00;1.67;;;18.30;99.90;;;;;;5073850;28;20325;-87
2022/09/02 00:14:13;;;;;;;4.35;1.48;;;18.40;99.90;;;;;;5071764;28;20191;-87
2022/09/02 00:16:49;;;;;;;8.10;2.00;;;18.40;99.90;;;;;;5072215;28;20192;-86
2022/09/02 00:19:21;;;;;;;9.98;1.65;;;18.40;99.90;;;;;;5073065;28;20200;-87
2022/09/02 00:21:54;;;;;;;11.68;2.15;;;18.30;99.90;;;;;;5054047;28;20218;-88
2022/09/02 00:24:26;;;;;;;7.15;2.05;;;18.30;99.90;;;;;;5054655;28;20211;-87
2022/09/02 00:26:56;;;;;;;5.72;1.92;;;18.30;99.90;;;;;;5053782;28;20199;-86
2022/09/02 00:29:28;;;;;;;6.03;1.58;;;18.20;99.90;;;;;;5060663;28;20202;-85
2022/09/02 00:32:02;;;;;;;5.00;1.98;;;18.30;99.90;;;;;;5073611;28;20271;-86
2022/09/02 00:34:33;;;;;;;8.20;2.05;;;18.30;99.90;;;;;;5054888;28;20680;-86
2022/09/02 00:37:05;;;;;;;7.13;2.00;;;18.30;99.90;;;;;;5066191;28;20638;-85
2022/09/02 00:39:37;;;;;;;7.35;1.95;;;18.40;99.90;;;;;;5056029;28;20239;-85
2022/09/02 00:42:10;;;;;;;5.20;2.00;;;18.40;99.90;;;;;;5066313;28;20268;-86
2022/09/02 00:44:44;;;;;;;9.15;2.00;;;18.40;99.90;;;;;;5072124;28;20197;-84
2022/09/02 00:47:21;;;;;;;6.85;1.90;;;18.40;99.90;;;;;;5057112;28;20197;-84
2022/09/02 00:49:54;;;;;;;9.38;2.05;;;18.50;99.90;;;;;;5089856;28;20223;-85
2022/09/02 00:52:29;;;;;;;4.85;1.75;;;18.50;99.90;;;;;;5089976;28;20214;-86
2022/09/02 00:55:02;;;;;;;12.13;2.20;;;18.40;99.90;;;;;;5086936;28;20219;-86
2022/09/02 00:57:40;;;;;;;7.65;1.77;;;18.40;99.90;;;;;;5087362;28;20571;-85
2022/09/02 01:00:16;;;;;;;6.05;1.75;;;18.30;99.90;;;;;;5085763;28;20199;-85
2022/09/02 01:05:41;;;;;;;5.38;1.88;;;18.30;99.90;;;;;;5060052;28;20570;-85
2022/09/02 01:08:14;;;;;;;6.65;1.92;;;18.30;99.90;;;;;;5054342;28;20212;-85
2022/09/02 01:10:45;;;;;;;11.90;2.03;;;18.50;99.90;;;;;;5054494;28;20185;-85
2022/09/02 01:13:18;;;;;;;13.07;2.60;;;18.50;99.90;;;;;;5053944;28;20244;-85
2022/09/02 01:15:52;;;;;;;8.27;2.30;;;18.50;99.90;;;;;;5075691;28;20226;-85
2022/09/02 01:18:28;;;;;;;7.05;1.90;;;18.50;99.90;;;;;;5083608;28;20257;-84
2022/09/02 01:20:59;;;;;;;6.97;1.83;;;18.50;99.90;;;;;;5058806;28;20220;-84
2022/09/02 01:23:33;;;;;;;5.80;1.55;;;18.50;99.90;;;;;;5063899;28;20275;-85
2022/09/02 01:26:06;;;;;;;8.88;1.95;;;18.50;99.90;;;;;;5077451;28;20195;-84
2022/09/02 01:28:39;;;;;;;6.85;1.73;;;18.50;99.90;;;;;;5065007;28;20212;-84
2022/09/02 01:31:10;;;;;;;12.75;2.42;;;18.40;99.90;;;;;;5052912;28;20239;-83
2022/09/02 01:33:41;;;;;;;9.48;2.17;;;18.40;99.90;;;;;;5055162;28;20189;-85
2022/09/02 01:36:12;;;;;;;7.25;2.22;;;18.40;99.90;;;;;;5071647;28;20239;-89
2022/09/02 01:38:46;;;;;;;8.05;1.70;;;18.40;99.90;;;;;;5073286;28;20239;-87
2022/09/02 01:41:17;;;;;;;6.28;1.80;;;18.40;99.90;;;;;;5073214;28;20200;-88
2022/09/02 01:43:48;;;;;;;5.57;1.60;;;18.40;99.90;;;;;;5071279;28;20261;-88
2022/09/02 01:46:20;;;;;;;8.32;1.98;;;18.30;99.90;;;;;;5053969;28;20309;-87
2022/09/02 01:48:52;;;;;;;6.50;2.10;;;18.30;99.90;;;;;;5052708;28;20181;-88
2022/09/02 01:51:23;;;;;;;7.28;2.22;;;18.20;99.90;;;;;;5054987;28;20189;-87
2022/09/02 01:53:56;;;;;;;10.10;2.47;;;18.20;99.90;;;;;;5074528;28;20265;-90
2022/09/02 01:56:28;;;;;;;10.00;1.90;;;18.30;99.90;;;;;;5075277;28;20204;-90
2022/09/02 01:59:01;;;;;;;10.07;2.17;;;18.30;99.90;;;;;;5077529;28;20216;-90
2022/09/02 02:01:33;;;;;;;7.00;2.00;;;18.20;99.90;;;;;;5059841;28;20184;-89
2022/09/02 02:04:05;;;;;;;8.23;2.38;;;18.10;99.90;;;;;;5069718;28;20197;-91
2022/09/02 02:09:30;;;;;;;10.55;2.00;;;18.00;99.90;;;;;;5087491;28;20593;-91
2022/09/02 02:12:05;;;;;;;8.00;2.38;;;18.00;99.90;;;;;;5091540;28;20272;-92
2022/09/02 02:14:35;;;;;;;6.85;2.00;;;17.90;99.90;;;;;;5082824;28;20199;-92
2022/09/02 02:17:08;;;;;;;8.50;2.05;;;17.90;99.90;;;;;;5077254;28;20214;-90
2022/09/02 02:19:40;;;;;;;7.60;2.13;;;17.80;99.90;;;;;;5077440;28;20224;-88
2022/09/02 02:22:11;;;;;;;8.25;2.13;;;17.90;99.90;;;;;;5078500;28;20211;-87
2022/09/02 02:24:45;;;;;;;6.07;1.80;;;18.00;99.90;;;;;;5088228;28;20689;-85
2022/09/02 02:27:16;;;;;;;7.05;2.72;;;18.00;99.90;;;;;;5079676;28;20202;-85
2022/09/02 02:29:48;;;;;;;6.90;1.98;;;18.00;99.90;;;;;;5066970;28;20193;-86
2022/09/02 02:32:19;;;;;;;5.82;1.75;;;17.90;99.90;;;;;;5057285;28;20219;-85
2022/09/02 02:34:50;;;;;;;11.38;2.40;;;17.90;99.90;;;;;;5056614;28;20189;-84
2022/09/02 02:37:21;;;;;;;9.25;2.15;;;17.90;99.90;;;;;;5072498;28;20227;-85
2022/09/02 02:39:55;;;;;;;11.32;2.47;;;17.90;99.90;;;;;;5076342;28;20192;-86
2022/09/02 02:42:26;;;;;;;7.53;2.30;;;18.00;99.90;;;;;;5062799;28;20561;-85
2022/09/02 02:44:58;;;;;;;7.82;1.90;;;18.00;99.90;;;;;;5070985;28;20207;-85
2022/09/02 02:47:29;;;;;;;5.70;1.67;;;18.00;99.90;;;;;;5076171;28;20577;-85
2022/09/02 02:50:00;;;;;;;11.93;2.05;;;18.00;99.90;;;;;;5076184;28;20195;-87
2022/09/02 02:52:31;;;;;;;5.82;2.10;;;18.00;99.90;;;;;;5075870;28;20208;-87
2022/09/02 02:55:05;;;;;;;6.75;1.98;;;18.00;99.90;;;;;;5075981;28;20246;-86
2022/09/02 02:57:37;;;;;;;5.70;1.60;;;18.00;99.90;;;;;;5078525;28;20257;-87
2022/09/02 03:00:13;;;;;;;7.53;2.03;;;18.00;99.90;;;;;;5062813;28;20204;-87
2022/09/02 03:02:44;;;;;;;5.65;1.67;;;17.90;99.90;;;;;;5055284;28;20228;-86
2022/09/02 03:05:17;;;;;;;6.40;1.77;;;17.90;99.90;;;;;;5055552;28;20193;-86
2022/09/02 03:07:49;;;;;;;10.57;2.15;;;17.90;99.90;;;;;;5055413;28;20246;-87
2022/09/02 03:10:24;;;;;;;11.07;1.70;;;18.00;99.90;;;;;;5056283;28;20208;-87
2022/09/02 03:12:55;;;;;;;8.77;1.83;;;18.00;99.90;;;;;;5055213;28;20200;-85
2022/09/02 03:15:26;;;;;;;10.88;1.58;;;18.10;99.90;;;;;;5058976;28;20192;-86
2022/09/02 03:17:58;;;;;;;9.93;1.42;;;18.00;99.90;;;;;;5075102;28;20247;-86
2022/09/02 03:20:29;;;;;;;7.45;1.90;;;17.90;99.90;;;;;;5075395;28;20208;-87
2022/09/02 03:23:03;;;;;;;4.63;1.60;;;17.80;99.90;;;;;;5075430;28;20219;-87
2022/09/02 03:25:38;;;;;;;4.78;1.45;;;17.70;99.90;;;;;;5076273;28;20238;-87
2022/09/02 03:28:10;;;;;;;9.90;2.13;;;17.70;99.90;;;;;;5060206;28;20206;-86
2022/09/02 03:30:44;;;;;;;5.45;1.58;;;17.70;99.90;;;;;;5066247;28;20260;-86
2022/09/02 03:33:15;;;;;;;10.35;2.35;;;17.70;99.90;;;;;;5061229;28;20273;-87
2022/09/02 03:35:49;;;;;;;6.32;1.70;;;17.70;99.90;;;;;;5074593;28;20224;-87
2022/09/02 03:38:20;;;;;;;6.95;1.58;;;17.60;99.90;;;;;;5074761;28;20234;-84
2022/09/02 03:40:54;;;;;;;8.43;1.80;;;17.60;99.90;;;;;;5076049;28;20206;-85
2022/09/02 03:43:27;;;;;;;9.60;1.65;;;17.60;99.90;;;;;;5076337;28;20200;-86
2022/09/02 03:45:57;;;;;;;8.13;1.90;;;17.70;99.90;;;;;;5056779;28;20208;-86
2022/09/02 03:48:29;;;;;;;8.60;1.48;;;17.90;99.90;;;;;;5055405;28;20191;-86
2022/09/02 03:51:00;;;;;;;5.95;1.45;;;17.90;99.90;;;;;;5074342;28;20196;-84
2022/09/02 03:53:31;;;;;;;6.95;1.65;;;17.90;99.90;;;;;;5075986;28;20188;-85
2022/09/02 03:56:07;;;;;;;5.97;1.58;;;17.90;99.90;;;;;;5075043;28;20552;-84
2022/09/02 03:58:39;;;;;;;7.05;1.58;;;18.00;99.90;;;;;;5074367;28;20231;-84
2022/09/02 04:01:14;;;;;;;7.63;1.50;;;18.10;99.90;;;;;;5069862;28;20658;-86
2022/09/02 04:03:45;;;;;;;6.57;1.40;;;18.10;99.90;;;;;;5082652;28;20521;-87
2022/09/02 04:06:17;;;;;;;11.00;1.85;;;18.20;99.90;;;;;;5079493;28;20204;-84
2022/09/02 04:08:49;;;;;;;8.07;2.10;;;18.00;99.90;;;;;;5078530;28;20199;-85
2022/09/02 04:11:24;;;;;;;7.57;1.67;;;18.00;99.90;;;;;;5076307;28;20184;-85
2022/09/02 04:13:55;;;;;;;9.52;1.92;;;18.10;99.90;;;;;;5076008;28;20314;-87
2022/09/02 04:16:29;;;;;;;6.60;1.90;;;18.20;99.90;;;;;;5076148;28;20203;-86
2022/09/02 04:19:01;;;;;;;6.00;1.25;;;18.00;99.90;;;;;;5062189;28;20224;-86
2022/09/02 04:21:33;;;;;;;9.70;1.77;;;18.00;99.90;;;;;;5058949;28;20253;-84
2022/09/02 04:24:04;;;;;;;8.20;1.60;;;17.90;99.90;;;;;;5074437;28;20206;-87
2022/09/02 04:26:39;;;;;;;7.95;1.63;;;17.90;99.90;;;;;;5074100;28;20196;-86
2022/09/02 04:29:09;;;;;;;8.30;1.80;;;17.90;99.90;;;;;;5070143;28;20639;-85
2022/09/02 04:31:42;;;;;;;8.10;1.83;;;17.90;99.90;;;;;;5072611;28;20200;-85
2022/09/02 04:34:12;;;;;;;8.25;1.92;;;17.80;99.90;;;;;;5074857;28;20204;-85
2022/09/02 04:36:43;;;;;;;7.95;1.60;;;17.70;99.90;;;;;;5051306;28;20316;-84
2022/09/02 04:39:24;;;;;;;8.05;1.83;;;17.70;99.90;;;;;;5068476;28;20223;-84
2022/09/02 04:41:58;;;;;;;10.85;2.00;;;17.70;99.90;;;;;;5092152;28;20223;-84
2022/09/02 04:44:29;;;;;;;8.68;1.65;;;17.60;99.90;;;;;;5079468;28;20207;-85
2022/09/02 04:47:11;;;;;;;7.57;1.58;;;17.70;99.90;;;;;;5088686;28;20315;-87
2022/09/02 04:49:54;;;;;;;7.45;1.75;;;17.70;99.90;;;;;;5087219;28;20316;-85
2022/09/02 04:52:50;;;;;;;10.57;1.65;;;17.70;99.90;;;;;;5079411;28;20204;-87
2022/09/02 04:55:28;;;;;;;9.05;1.90;;;17.70;99.90;;;;;;5079576;28;20191;-88
2022/09/02 04:58:04;;;;;;;8.82;1.70;;;17.60;99.90;;;;;;5073417;28;20721;-86
2022/09/02 05:00:38;;;;;;;8.70;1.60;;;17.60;99.90;;;;;;5086480;28;20272;-86
2022/09/02 05:03:16;;;;;;;7.70;1.75;;;17.50;99.90;;;;;;5085670;28;20202;-84
2022/09/02 05:05:50;;;;;;;7.40;1.70;;;17.50;99.90;;;;;;5087892;28;20224;-86
2022/09/02 05:08:26;;;;;;;5.68;1.10;;;17.50;99.90;;;;;;5088900;28;20215;-86
2022/09/02 05:11:12;;;;;;;7.53;1.38;;;17.30;99.90;;;;;;5075257;28;20208;-85
2022/09/02 05:14:13;;;;;;;7.80;1.52;;;17.30;99.90;;;;;;5086434;28;20206;-85
2022/09/02 05:17:01;;;;;;;8.88;1.27;;;17.20;99.90;;;;;;5051415;28;20327;-85
2022/09/02 05:19:45;;;;;;;6.32;1.40;;;17.10;99.90;;;;;;5068085;28;20204;-87
2022/09/02 05:22:18;;;;;;;6.53;1.40;;;17.00;99.90;;;;;;5067958;28;20655;-84
2022/09/02 05:24:55;;;;;;;9.30;1.17;;;16.90;99.90;;;;;;5062641;28;20640;-87
2022/09/02 05:27:32;;;;;;;6.25;1.40;;;16.80;99.90;;;;;;5089451;28;20207;-86
2022/09/02 05:30:28;;;;;;;8.75;1.73;;;16.70;99.90;;;;;;5076676;28;20255;-86
2022/09/02 05:33:04;;;;;;;6.32;1.38;;;16.80;99.90;;;;;;5089000;28;20731;-85
2022/09/02 05:35:47;;;;;;;6.85;1.15;;;16.70;99.90;;;;;;5086381;28;20238;-86
2022/09/02 05:41:29;;;;;;;6.43;1.40;;;16.70;99.90;;;;;;5080300;28;20226;-87
2022/09/02 05:44:09;;;;;;;6.80;1.50;;;16.60;99.90;;;;;;5057824;28;20270;-86
2022/09/02 05:47:00;;;;;;;5.93;1.42;;;16.70;99.90;;;;;;5073594;28;20223;-85
2022/09/02 05:49:36;;;;;;;10.00;1.60;;;16.70;99.90;;;;;;5071517;28;20219;-86
2022/09/02 05:52:14;;;;;;;5.30;1.50;;;16.80;99.90;;;;;;5081835;28;20199;-85
2022/09/02 05:54:48;;;;;;;8.13;1.40;;;16.80;99.90;;;;;;5083094;28;20214;-86
2022/09/02 05:57:29;;;;;;;5.47;1.52;;;16.80;99.90;;;;;;5079967;28;20770;-87
2022/09/02 06:00:18;;;;;;;6.68;1.35;;;16.80;99.90;;;;;;5077667;28;20310;-89
2022/09/02 06:05:46;;;;;;;6.70;1.90;;;16.80;99.90;;;;;;5064424;28;20215;-87
2022/09/02 06:08:19;;;;;;;6.78;1.50;;;16.80;99.90;;;;;;5060541;28;20616;-87
2022/09/02 06:10:49;;;;;;;7.65;1.55;;;16.80;99.90;;;;;;5070719;28;20751;-85
2022/09/02 06:13:22;;;;;;;5.53;1.40;;;16.70;99.90;;;;;;5091998;28;20199;-85
2022/09/02 06:15:53;;;;;;;7.35;1.33;;;16.70;99.90;;;;;;5070966;28;20554;-85
2022/09/02 06:18:24;;;;;;;8.30;1.42;;;16.70;99.90;;;;;;5070969;28;20203;-85
2022/09/02 06:20:57;;;;;;;8.50;1.55;;;16.70;99.90;;;;;;5071447;28;20211;-85
2022/09/02 06:23:28;;;;;;;9.57;1.77;;;16.80;99.90;;;;;;5071268;28;20195;-83
2022/09/02 06:25:59;;;;;;;6.57;1.52;;;16.90;99.90;;;;;;5071967;28;20196;-83
2022/09/02 06:28:30;;;;;;;11.82;1.58;;;16.80;99.90;;;;;;5071798;28;20207;-84
2022/09/02 06:31:01;;;;;;;8.35;1.63;;;16.80;99.90;;;;;;5065468;28;20671;-84
2022/09/02 06:33:31;;;;;;;8.55;1.80;;;16.90;99.90;;;;;;5053394;28;20185;-84
2022/09/02 06:36:08;;;;;;;8.02;1.77;;;16.80;99.90;;;;;;5061455;28;20234;-85
2022/09/02 06:38:41;;;;;;;6.88;1.58;;;16.80;99.90;;;;;;5051221;28;20203;-84
2022/09/02 06:41:14;;;;;;;5.65;1.70;;;16.80;99.90;;;;;;5052680;28;20192;-84
2022/09/02 06:43:44;;;;;;;4.78;1.60;;;16.80;99.90;;;;;;5057055;28;20201;-85
2022/09/02 06:46:18;;;;;;;5.72;1.25;;;16.80;99.90;;;;;;5069169;28;20303;-85
2022/09/02 06:48:49;;;;;;;7.57;1.73;;;16.80;99.90;;;;;;5071352;28;20192;-84
2022/09/02 06:51:24;;;;;;;9.25;1.60;;;16.70;99.90;;;;;;5069885;28;20220;-85
2022/09/02 06:53:55;;;;;;;4.18;1.20;;;16.70;99.90;;;;;;5072291;28;20208;-84
2022/09/02 06:56:28;;;;;;;6.82;1.50;;;16.70;99.90;;;;;;5074946;28;20184;-84
2022/09/02 06:58:59;;;;;;;7.78;1.70;;;16.70;99.90;;;;;;5086275;28;20202;-81
2022/09/02 07:01:32;;;;;;;7.35;1.30;;;16.70;99.90;;;;;;5075297;28;20647;-84
2022/09/02 07:06:56;;;;;;;7.38;1.65;;;16.70;99.90;;;;;;5075772;28;20599;-84
2022/09/02 07:09:30;;;;;;;4.97;1.52;;;16.60;99.90;;;;;;5073570;28;20200;-83
2022/09/02 07:12:03;;;;;;;5.50;1.40;;;16.50;99.90;;;;;;5072943;28;20200;-84
2022/09/02 07:14:37;;;;;;;7.47;1.77;;;16.50;99.90;;;;;;5073138;28;20575;-82
2022/09/02 07:17:09;;;;;;;8.13;2.00;;;16.60;99.90;;;;;;5054675;28;20198;-84
2022/09/02 07:19:41;;;;;;;7.13;1.52;;;16.40;99.90;;;;;;5068873;28;20737;-84
2022/09/02 07:22:14;;;;;;;7.38;1.60;;;16.50;99.90;;;;;;5074881;28;20662;-84
2022/09/02 07:24:45;;;;;;;5.90;1.35;;;16.50;99.90;;;;;;5074488;28;20196;-84
2022/09/02 07:27:16;;;;;;;7.10;1.45;;;16.50;99.90;;;;;;5073274;28;20658;-85
2022/09/02 07:29:47;;;;;;;9.43;1.67;;;16.40;99.90;;;;;;5068228;28;20199;-85
2022/09/02 07:32:18;;;;;;;6.88;1.83;;;16.30;99.90;;;;;;5075727;28;20207;-85
2022/09/02 07:34:49;;;;;;;6.75;1.50;;;16.30;99.90;;;;;;5073980;28;20196;-85
2022/09/02 07:37:22;;;;;;;5.30;1.30;;;16.20;99.90;;;;;;5074340;28;20694;-85
2022/09/02 07:39:53;;;;;;;6.40;1.42;;;16.30;99.90;;;;;;5074472;28;20216;-86
2022/09/02 07:42:24;;;;;;;4.53;1.40;;;16.20;99.90;;;;;;5074132;28;20203;-87
2022/09/02 07:44:56;;;;;;;8.50;1.63;;;16.30;99.90;;;;;;5074750;28;20657;-85
2022/09/02 07:47:27;;;;;;;8.35;1.83;;;16.30;99.90;;;;;;5074097;28;20267;-86
2022/09/02 07:49:58;;;;;;;7.38;1.98;;;16.40;99.90;;;;;;5073622;28;20426;-83
2022/09/02 07:52:31;;;;;;;9.88;2.63;;;16.30;99.90;;;;;;5073720;28;20207;-89
2022/09/02 07:55:01;;;;;;;13.38;2.67;;;16.40;99.90;;;;;;5074241;28;20655;-82
2022/09/02 08:00:18;;;;;;;13.80;2.33;;;16.40;99.90;;;;;;5067332;28;20227;-82
2022/09/02 08:02:49;;;;;;;13.77;2.47;;;16.40;99.90;;;;;;5073869;28;20217;-83
2022/09/02 08:05:20;;;;;;;12.52;2.33;;;16.30;99.90;;;;;;5074848;28;20196;-84
2022/09/02 08:07:54;;;;;;;11.48;2.20;;;16.30;99.90;;;;;;5083973;28;20261;-83
2022/09/02 08:10:28;;;;;;;9.40;2.15;;;16.20;99.90;;;;;;5073961;28;20218;-85
2022/09/02 08:13:00;;;;;;;12.35;2.67;;;16.20;99.90;;;;;;5074657;28;20630;-85
2022/09/02 08:15:33;;;;;;;9.15;2.20;;;16.20;99.90;;;;;;5069996;28;20762;-90
2022/09/02 08:18:07;;;;;;;9.45;2.38;;;16.20;99.90;;;;;;5055692;28;20201;-88
2022/09/02 08:20:38;;;;;;;10.07;2.25;;;16.20;99.90;;;;;;5054411;28;20230;-87
2022/09/02 08:23:11;;;;;;;11.45;2.60;;;16.20;99.90;;;;;;5053929;28;20708;-86
2022/09/02 08:25:42;;;;;;;10.23;2.42;;;16.20;99.90;;;;;;5053356;28;20624;-84
2022/09/02 08:28:14;;;;;;;13.00;2.58;;;16.20;99.90;;;;;;5053384;28;20294;-87
2022/09/02 08:30:46;;;;;;;10.80;2.30;;;16.20;99.90;;;;;;5053402;28;20672;-83
2022/09/02 08:33:17;;;;;;;15.52;2.60;;;16.10;99.90;;;;;;5062649;28;20204;-87
2022/09/02 08:35:49;;;;;;;15.32;2.60;;;16.10;99.90;;;;;;5073602;28;20227;-90
2022/09/02 08:38:24;;;;;;;13.15;2.45;;;16.00;99.90;;;;;;5073813;28;20180;-87
2022/09/02 08:40:55;;;;;;;15.43;2.80;;;16.00;99.90;;;;;;5072471;28;20230;-88
2022/09/02 08:43:38;;;;;;;10.13;2.15;;;16.00;99.90;;;;;;5072933;28;20196;-86
2022/09/02 08:46:15;;;;;;;16.38;2.72;;;16.00;99.90;;;;;;5073294;28;20180;-88
2022/09/02 08:48:52;;;;;;;12.90;2.63;;;16.00;99.90;;;;;;5073121;28;20203;-88
2022/09/02 08:51:27;;;;;;;13.60;2.90;;;16.00;99.90;;;;;;5073026;28;20226;-86
2022/09/02 08:54:08;;;;;;;14.43;2.78;;;16.00;99.90;;;;;;5073578;28;20678;-90
2022/09/02 08:56:39;;;;;;;17.65;3.10;;;16.00;99.90;;;;;;5073453;28;20558;-88
2022/09/02 08:59:14;;;;;;;15.30;3.15;;;16.00;99.90;;;;;;5073461;28;20211;-87
2022/09/02 09:01:50;;;;;;;14.77;2.83;;;16.00;99.90;;;;;;5055675;28;20204;-90
2022/09/02 09:04:54;;;;;;;12.13;2.97;;;16.00;99.90;;;;;;5063710;28;20207;-90
2022/09/02 09:07:35;;;;;;;11.68;2.47;;;16.00;99.90;;;;;;5047394;28;20285;-88
2022/09/02 09:10:21;;;;;;;12.30;2.85;;;16.10;99.90;;;;;;5058927;28;20210;-88
2022/09/02 09:13:20;;;;;;;21.70;3.35;;;16.10;99.90;;;;;;5093514;28;20198;-89
2022/09/02 09:15:58;;;;;;;17.95;3.25;;;16.10;99.90;;;;;;5088512;28;20182;-90
2022/09/02 09:18:43;;;;;;;15.07;3.15;;;16.10;99.90;;;;;;5082335;28;20194;-87
2022/09/02 09:21:14;;;;;;;18.35;3.85;;;16.10;99.90;;;;;;5085366;28;20231;-86
2022/09/02 09:23:45;;;;;;;16.75;2.85;;;16.10;99.90;;;;;;5077996;28;20729;-88
2022/09/02 09:26:22;;;;;;;16.48;3.35;;;16.00;99.90;;;;;;5073438;28;20204;-88
2022/09/02 09:28:54;;;;;;;12.82;2.55;;;16.00;99.90;;;;;;5072824;28;20286;-88
2022/09/02 09:31:30;;;;;;;14.50;2.83;;;16.10;99.90;;;;;;5073269;28;20211;-88
2022/09/02 09:34:02;;;;;;;10.55;2.63;;;16.00;99.90;;;;;;5074196;28;20642;-89
2022/09/02 09:36:56;;;;;;;14.00;2.72;;;16.00;99.90;;;;;;5081363;28;20220;-89
2022/09/02 09:39:30;;;;;;;11.63;2.70;;;16.00;99.90;;;;;;5073305;28;20753;-89
2022/09/02 09:42:06;;;;;;;12.05;2.72;;;15.90;99.90;;;;;;5058348;28;20201;-87
2022/09/02 09:44:45;;;;;;;12.13;2.50;;;16.00;99.90;;;;;;5053556;28;20677;-87
2022/09/02 09:47:21;;;;;;;13.27;2.75;;;16.00;99.90;;;;;;5052425;28;20184;-87
2022/09/02 09:49:55;;;;;;;13.18;2.58;;;16.00;99.90;;;;;;5051946;28;20204;-87
2022/09/02 09:52:29;;;;;;;12.68;2.30;;;16.10;99.90;;;;;;5051985;28;20196;-84
2022/09/02 09:55:24;;;;;;;11.82;2.33;;;16.10;99.90;;;;;;5051405;28;20194;-85
2022/09/02 09:58:11;;;;;;;10.40;2.47;;;16.10;99.90;;;;;;5035609;28;20204;-85
2022/09/02 10:00:42;;;;;;;18.10;2.45;;;16.10;99.90;;;;;;5061226;28;20220;-86
2022/09/02 10:03:24;;;;;;;17.75;2.90;;;16.20;99.90;;;;;;5074200;28;20200;-84
2022/09/02 10:05:58;;;;;;;14.27;2.40;;;16.20;99.90;;;;;;5075453;28;20557;-91
2022/09/02 10:08:30;;;;;;;12.98;2.35;;;16.20;99.90;;;;;;5072779;28;20348;-87
2022/09/02 10:11:03;;;;;;;11.68;2.33;;;16.20;99.90;;;;;;5065909;28;20206;-88
2022/09/02 10:13:40;;;;;;;13.38;2.83;;;16.20;99.90;;;;;;5079722;28;20198;-89
2022/09/02 10:16:36;;;;;;;12.38;2.50;;;16.20;99.90;;;;;;5072314;28;20269;-85
2022/09/02 10:19:16;;;;;;;16.73;2.85;;;16.20;99.90;;;;;;5071453;28;20185;-86
2022/09/02 10:22:17;;;;;;;10.18;2.13;;;16.20;99.90;;;;;;5071592;28;20222;-85
2022/09/02 10:25:06;;;;;;;12.95;2.58;;;16.20;99.90;;;;;;5071480;28;20237;-85
2022/09/02 10:27:47;;;;;;;12.15;2.50;;;16.20;99.90;;;;;;5070834;28;20199;-86
2022/09/02 10:30:24;;;;;;;12.93;2.08;;;16.30;99.90;;;;;;5058047;28;20206;-87
2022/09/02 10:33:21;;;;;;;9.55;2.10;;;16.30;99.90;;;;;;5055488;28;20219;-87
2022/09/02 10:36:00;;;;;;;10.75;2.40;;;16.30;99.90;;;;;;5054882;28;20228;-84
2022/09/02 10:38:39;;;;;;;10.43;1.92;;;16.30;99.90;;;;;;5071666;28;20238;-85
2022/09/02 10:41:21;;;;;;;9.73;2.13;;;16.30;99.90;;;;;;5074717;28;20352;-85
2022/09/02 10:44:12;;;;;;;10.60;1.95;;;16.20;99.90;;;;;;5073992;28;20227;-85
2022/09/02 10:46:53;;;;;;;10.55;2.53;;;16.30;99.90;;;;;;5059223;28;20219;-87
2022/09/02 10:49:36;;;;;;;9.48;2.13;;;16.40;99.90;;;;;;5070211;28;20300;-86
2022/09/02 10:52:15;;;;;;;8.73;1.98;;;16.30;99.90;;;;;;5055133;28;20201;-87
2022/09/02 10:54:54;;;;;;;9.20;2.35;;;16.30;99.90;;;;;;5059370;28;20216;-88
2022/09/02 10:57:28;;;;;;;10.35;2.22;;;16.40;99.90;;;;;;5072240;28;20210;-87
2022/09/02 11:00:05;;;;;;;6.43;1.50;;;16.40;99.90;;;;;;5069372;28;20198;-86
2022/09/02 11:02:43;;;;;;;12.77;2.50;;;16.40;99.90;;;;;;5055315;28;20616;-87
2022/09/02 11:05:18;;;;;;;9.20;1.98;;;16.30;99.90;;;;;;5054987;28;20195;-86
2022/09/02 11:07:55;;;;;;;8.07;2.10;;;16.40;99.90;;;;;;5054786;28;20679;-88
2022/09/02 11:10:31;;;;;;;11.35;2.33;;;16.40;99.90;;;;;;5071261;28;20195;-88
2022/09/02 11:13:09;;;;;;;6.43;1.73;;;16.30;99.90;;;;;;5075482;28;20195;-88
2022/09/02 11:15:47;;;;;;;10.88;2.22;;;16.30;99.90;;;;;;5074613;28;20210;-88
2022/09/02 11:18:29;;;;;;;11.88;2.03;;;16.40;99.90;;;;;;5071551;28;20275;-88
2022/09/02 11:21:06;;;;;;;9.63;2.20;;;16.40;99.90;;;;;;5070943;28;20822;-87
2022/09/02 11:23:44;;;;;;;11.10;2.15;;;16.30;99.90;;;;;;5074902;28;20198;-86
2022/09/02 11:26:23;;;;;;;7.03;2.38;;;16.30;99.90;;;;;;5066422;28;20207;-87
2022/09/02 11:29:00;;;;;;;10.80;2.45;;;16.30;99.90;;;;;;5054614;28;20199;-87
2022/09/02 11:31:36;;;;;;;8.95;1.77;;;16.30;99.90;;;;;;5075476;28;20188;-87
2022/09/02 11:34:20;;;;;;;9.52;2.15;;;16.30;99.90;;;;;;5081811;28;20278;-84
2022/09/02 11:36:51;;;;;;;9.00;2.10;;;16.30;99.90;;;;;;5073243;28;20235;-84
2022/09/02 11:39:31;;;;;;;10.02;2.00;;;16.30;99.90;;;;;;5072953;28;20629;-83
2022/09/02 11:42:24;;;;;;;10.88;2.25;;;16.30;99.90;;;;;;5052900;28;20209;-84
2022/09/02 11:45:20;;;;;;;10.82;1.88;;;16.30;99.90;;;;;;5053805;28;20185;-84
2022/09/02 11:48:34;;;;;;;11.27;1.80;;;16.30;99.90;;;;;;5054095;28;20192;-83
2022/09/02 11:51:36;;;;;;;8.23;2.20;;;16.30;99.90;;;;;;5066592;28;20651;-84
2022/09/02 11:54:09;;;;;;;10.20;1.80;;;16.30;99.90;;;;;;5060569;28;20280;-83
2022/09/02 11:56:42;;;;;;;11.70;2.20;;;16.30;99.90;;;;;;5061818;28;20247;-83
2022/09/02 11:59:30;;;;;;;10.68;2.22;;;16.30;99.90;;;;;;5053326;28;20216;-82
2022/09/02 12:02:01;;;;;;;8.98;1.80;;;16.20;99.90;;;;;;5080653;28;20255;-83
2022/09/02 12:04:32;;;;;;;8.95;2.05;;;16.20;99.90;;;;;;5070489;28;20232;-85
2022/09/02 12:07:34;;;;;;;10.98;1.85;;;16.30;99.90;;;;;;5074581;28;20278;-84
2022/09/02 12:10:06;;;;;;;10.98;2.45;;;16.20;99.90;;;;;;5058290;28;20618;-84
2022/09/02 12:13:04;;;;;;;9.13;2.00;;;16.30;99.90;;;;;;5072948;28;20257;-84
2022/09/02 12:15:40;;;;;;;12.77;2.53;;;16.20;99.90;;;;;;5060484;28;20652;-83
2022/09/02 12:18:39;;;;;;;10.35;1.75;;;16.20;99.90;;;;;;5059746;28;20224;-83
2022/09/02 12:21:15;;;;;;;10.82;1.70;;;16.10;99.90;;;;;;5057576;28;20224;-85
2022/09/02 12:24:22;;;;;;;9.25;2.15;;;16.20;99.90;;;;;;5060621;28;20250;-84
2022/09/02 12:27:27;;;;;;;11.00;2.10;;;16.20;99.90;;;;;;5062162;28;20184;-85
2022/09/02 12:30:01;;;;;;;10.77;2.00;;;16.20;99.90;;;;;;5076508;28;20191;-84
2022/09/02 12:33:11;;;;;;;8.15;1.75;;;16.20;99.90;;;;;;5074970;28;20608;-84
2022/09/02 12:35:57;;;;;;;9.63;1.90;;;16.30;99.90;;;;;;5077279;28;20808;-84
2022/09/02 12:38:43;;;;;;;10.52;1.95;;;16.20;99.90;;;;;;5081296;28;20196;-84
2022/09/02 12:41:34;;;;;;;13.40;2.30;;;16.20;99.90;;;;;;5087557;28;20299;-84
2022/09/02 12:44:29;;;;;;;10.02;1.83;;;16.20;99.90;;;;;;5065627;28;20283;-84
2022/09/02 12:47:38;;;;;;;11.70;2.10;;;16.20;99.90;;;;;;5061372;28;20206;-83
2022/09/02 12:50:11;;;;;;;12.40;2.30;;;16.20;99.90;;;;;;5060607;28;20291;-84
2022/09/02 12:52:48;;;;;;;10.57;2.25;;;16.10;99.90;;;;;;5056365;28;20247;-84
2022/09/02 12:55:30;;;;;;;9.77;2.17;;;16.20;99.90;;;;;;5069409;28;20546;-84
2022/09/02 12:58:15;;;;;;;9.95;2.30;;;16.10;99.90;;;;;;5076103;28;20231;-84
2022/09/02 13:01:04;;;;;;;11.65;2.33;;;16.20;99.90;;;;;;5074118;28;20215;-84
2022/09/02 13:03:55;;;;;;;9.80;2.20;;;16.20;99.90;;;;;;5063410;28;20247;-84
2022/09/02 13:06:37;;;;;;;8.70;1.73;;;16.20;99.90;;;;;;5057110;28;20211;-84
2022/09/02 13:09:51;;;;;;;11.50;2.70;;;16.20;99.90;;;;;;5039904;28;20204;-82
2022/09/02 13:12:58;;;;;;;8.18;1.70;;;16.10;99.90;;;;;;5055593;28;20192;-82
2022/09/02 13:15:54;;;;;;;5.85;1.55;;;16.10;99.90;;;;;;5075796;28;20214;-83
2022/09/02 13:19:03;;;;;;;13.05;1.98;;;16.10;99.90;;;;;;5072307;28;20210;-83
2022/09/02 13:22:19;;;;;;;12.38;2.20;;;16.20;99.90;;;;;;5063435;28;20220;-85
2022/09/02 13:25:30;;;;;;;9.80;2.13;;;16.20;99.90;;;;;;5054131;28;20206;-83
2022/09/02 13:28:35;;;;;;;11.80;1.95;;;16.20;99.90;;;;;;5077601;28;20199;-83
2022/09/02 13:31:21;;;;;;;8.52;1.88;;;16.20;99.90;;;;;;5077090;28;20235;-82
2022/09/02 13:34:06;;;;;;;9.57;2.10;;;16.20;99.90;;;;;;5051249;28;20240;-82
2022/09/02 13:36:46;;;;;;;9.50;2.05;;;16.10;99.90;;;;;;5064509;28;20231;-83
2022/09/02 13:39:22;;;;;;;9.75;2.08;;;16.10;99.90;;;;;;5062405;28;20283;-83
2022/09/02 13:41:54;;;;;;;7.22;1.73;;;16.00;99.90;;;;;;5055391;28;20690;-84
2022/09/02 13:44:27;;;;;;;10.25;2.00;;;16.10;99.90;;;;;;5058873;28;20202;-83
2022/09/02 13:47:07;;;;;;;8.27;2.03;;;16.00;99.90;;;;;;5071835;28;20227;-86
2022/09/02 13:49:39;;;;;;;12.35;2.05;;;16.10;99.90;;;;;;5072063;28;20318;-88
2022/09/02 13:52:15;;;;;;;8.40;1.75;;;16.10;99.90;;;;;;5071668;28;20216;-87